createdAt,value
2022-09-16T06:00:32.086Z,12.45
2022-09-16T06:04:24.615Z,12.35
2022-09-16T06:08:17.007Z,12.80
2022-09-16T06:12:10.367Z,12.68
2022-09-16T06:16:03.569Z,9.85
2022-09-16T06:19:56.073Z,9.73
2022-09-16T06:23:48.538Z,8.50
2022-09-16T06:27:40.873Z,10.32
2022-09-16T06:31:37.750Z,8.52
2022-09-16T06:35:30.741Z,8.32
2022-09-16T06:39:24.204Z,10.63
2022-09-16T06:43:17.119Z,9.10
2022-09-16T06:47:09.716Z,6.82
2022-09-16T06:51:04.741Z,11.50
2022-09-16T06:54:57.297Z,7.70
2022-09-16T06:58:53.088Z,10.57
2022-09-16T07:02:45.688Z,11.90
2022-09-16T07:11:01.571Z,8.52
2022-09-16T07:14:53.872Z,11.15
2022-09-16T07:18:48.417Z,9.93
2022-09-16T07:22:41.090Z,9.95
2022-09-16T07:26:35.464Z,9.43
2022-09-16T07:30:31.271Z,10.77
2022-09-16T07:34:23.764Z,8.73
2022-09-16T07:38:16.141Z,10.45
2022-09-16T07:42:08.578Z,10.15
2022-09-16T07:46:01.252Z,8.55
2022-09-16T07:49:56.198Z,10.27
2022-09-16T07:53:53.341Z,13.27
2022-09-16T08:01:43.235Z,11.55
2022-09-16T08:05:35.983Z,9.85
2022-09-16T08:09:48.608Z,9.18
2022-09-16T08:13:42.672Z,13.30
2022-09-16T08:17:34.991Z,9.05
2022-09-16T08:21:29.348Z,11.80
2022-09-16T08:25:21.781Z,9.43
2022-09-16T08:29:14.436Z,8.73
2022-09-16T08:33:07.280Z,7.47
2022-09-16T08:36:59.804Z,8.65
2022-09-16T08:41:06.989Z,5.85
2022-09-16T08:45:19.223Z,8.07
2022-09-16T08:49:33.072Z,7.78
2022-09-16T08:53:35.796Z,17.88
2022-09-16T08:57:32.234Z,10.43
2022-09-16T09:01:44.778Z,7.35
2022-09-16T09:05:56.402Z,6.97
2022-09-16T09:10:05.884Z,6.18
2022-09-16T09:14:19.423Z,7.00
2022-09-16T09:18:33.553Z,7.53
2022-09-16T09:22:45.945Z,6.03
2022-09-16T09:26:55.892Z,11.43
2022-09-16T09:31:14.401Z,5.72
2022-09-16T09:35:48.039Z,5.45
2022-09-16T09:39:47.513Z,6.47
2022-09-16T09:44:01.674Z,4.85
2022-09-16T09:47:57.365Z,3.88
2022-09-16T09:51:58.662Z,4.25
2022-09-16T09:56:17.201Z,5.40
2022-09-16T10:00:18.323Z,6.28
2022-09-16T10:04:17.247Z,6.28
2022-09-16T10:08:21.626Z,3.40
2022-09-16T10:12:14.163Z,5.28
2022-09-16T10:16:15.877Z,4.35
2022-09-16T10:20:25.137Z,4.63
2022-09-16T10:24:31.354Z,5.97
2022-09-16T10:28:26.198Z,3.35
2022-09-16T10:32:19.953Z,6.50
2022-09-16T10:36:20.645Z,4.50
2022-09-16T10:40:17.565Z,4.32
2022-09-16T10:44:31.808Z,7.38
2022-09-16T10:48:29.186Z,3.88
2022-09-16T10:52:24.213Z,7.30
2022-09-16T10:56:19.590Z,5.32
2022-09-16T11:00:16.772Z,4.45
2022-09-16T11:04:37.471Z,4.72
2022-09-16T11:08:43.451Z,4.30
2022-09-16T11:12:48.302Z,5.03
2022-09-16T11:17:11.381Z,5.75
2022-09-16T11:21:26.316Z,4.63
2022-09-16T11:25:46.687Z,4.25
2022-09-16T11:29:57.668Z,5.32
2022-09-16T11:33:56.044Z,3.13
2022-09-16T11:38:20.804Z,3.55
2022-09-16T11:42:33.977Z,6.90
2022-09-16T11:47:05.952Z,3.85
2022-09-16T11:51:14.306Z,4.30
2022-09-16T11:55:28.633Z,3.67
2022-09-16T11:59:24.800Z,4.10
2022-09-16T12:03:26.270Z,3.90
2022-09-16T12:07:36.215Z,2.88
2022-09-16T12:11:36.763Z,4.60
2022-09-16T12:15:38.255Z,2.70
2022-09-16T12:19:36.497Z,4.03
2022-09-16T12:23:34.065Z,3.38
2022-09-16T12:27:41.563Z,2.83
2022-09-16T12:31:44.971Z,3.55
2022-09-16T12:35:50.051Z,5.22
2022-09-16T12:39:43.024Z,5.20
2022-09-16T12:44:17.075Z,4.07
2022-09-16T12:48:31.958Z,3.72
2022-09-16T12:52:46.046Z,2.33
2022-09-16T12:56:47.703Z,3.97
2022-09-16T13:01:09.923Z,4.03
2022-09-16T13:05:12.693Z,3.20
2022-09-16T13:09:14.438Z,3.95
2022-09-16T13:13:08.046Z,6.10
2022-09-16T13:17:03.562Z,6.30
2022-09-16T13:21:05.656Z,5.45
2022-09-16T13:25:11.321Z,3.75
2022-09-16T13:29:03.966Z,5.30
2022-09-16T13:32:56.347Z,5.38
2022-09-16T13:36:48.850Z,5.00
2022-09-16T13:40:53.547Z,3.55
2022-09-16T13:44:46.075Z,2.97
2022-09-16T13:48:44.454Z,3.45
2022-09-16T13:52:37.212Z,8.77
2022-09-16T13:57:03.509Z,3.78
2022-09-16T14:01:18.292Z,5.80
2022-09-16T14:05:19.823Z,3.33
2022-09-16T14:09:24.622Z,4.50
2022-09-16T14:13:19.739Z,4.25
2022-09-16T14:17:22.187Z,4.45
2022-09-16T14:21:20.937Z,4.60
2022-09-16T14:25:36.896Z,3.50
2022-09-16T14:29:29.377Z,5.40
2022-09-16T14:33:32.432Z,3.55
2022-09-16T14:37:30.769Z,4.22
2022-09-16T14:41:30.952Z,2.83
2022-09-16T14:45:24.033Z,3.58
2022-09-16T14:49:18.701Z,3.40
2022-09-16T14:53:35.285Z,3.03
2022-09-16T14:57:30.854Z,3.85
2022-09-16T15:01:27.572Z,3.95
2022-09-16T15:09:46.727Z,5.05
2022-09-16T15:13:39.994Z,7.75
2022-09-16T15:17:32.709Z,3.47
2022-09-16T15:21:33.247Z,8.27
2022-09-16T15:25:30.031Z,4.78
2022-09-16T15:29:25.575Z,4.30
2022-09-16T15:33:34.491Z,5.90
2022-09-16T15:37:32.556Z,5.22
2022-09-16T15:41:25.673Z,3.80
2022-09-16T15:45:20.410Z,7.57
2022-09-16T15:49:14.758Z,5.95
2022-09-16T15:53:15.889Z,2.63
2022-09-16T15:57:23.361Z,4.03
2022-09-16T16:01:18.291Z,7.18
2022-09-16T16:05:17.415Z,4.20
2022-09-16T16:09:28.808Z,4.38
2022-09-16T16:13:21.184Z,5.82
2022-09-16T16:17:19.879Z,3.97
2022-09-16T16:21:16.178Z,4.90
2022-09-16T16:25:09.171Z,4.88
2022-09-16T16:29:02.206Z,4.38
2022-09-16T16:32:54.606Z,6.40
2022-09-16T16:36:46.980Z,6.82
2022-09-16T16:40:39.426Z,4.00
2022-09-16T16:44:32.648Z,3.55
2022-09-16T16:48:27.087Z,5.80
2022-09-16T16:52:19.504Z,5.50
2022-09-16T16:56:15.806Z,9.30
2022-09-16T17:00:09.036Z,4.95
2022-09-16T17:04:02.805Z,6.93
2022-09-16T17:07:55.219Z,8.02
2022-09-16T17:11:58.711Z,5.32
2022-09-16T17:15:52.630Z,4.97
2022-09-16T17:19:45.271Z,5.85
2022-09-16T17:23:38.536Z,4.22
2022-09-16T17:27:31.147Z,3.55
2022-09-16T17:31:26.561Z,4.15
2022-09-16T17:35:18.925Z,4.15
2022-09-16T17:39:20.728Z,6.90
2022-09-16T17:43:13.207Z,4.80
2022-09-16T17:47:05.801Z,7.72
2022-09-16T17:50:59.512Z,6.57
2022-09-16T17:54:51.924Z,7.28
2022-09-16T17:58:45.890Z,8.13
2022-09-16T18:02:38.381Z,8.93
2022-09-16T18:06:35.606Z,7.20
2022-09-16T18:10:28.181Z,6.38
2022-09-16T18:14:23.469Z,9.95
2022-09-16T18:18:17.646Z,7.63
2022-09-16T18:22:10.204Z,5.20
2022-09-16T18:26:07.876Z,5.40
2022-09-16T18:30:00.307Z,6.57
2022-09-16T18:33:54.814Z,9.07
2022-09-16T18:37:47.177Z,5.47
2022-09-16T18:41:41.443Z,8.65
2022-09-16T18:45:34.211Z,7.07
2022-09-16T18:49:28.074Z,6.53
2022-09-16T18:53:20.470Z,5.10
2022-09-16T18:57:14.207Z,5.45
2022-09-16T19:01:13.701Z,7.75
2022-09-16T19:05:06.670Z,8.38
2022-09-16T19:09:00.646Z,11.05
2022-09-16T19:12:53.064Z,7.60
2022-09-16T19:16:46.045Z,6.60
2022-09-16T19:20:43.947Z,9.00
2022-09-16T19:24:39.211Z,8.35
2022-09-16T19:28:32.277Z,8.60
2022-09-16T19:32:32.956Z,9.20
2022-09-16T19:36:28.365Z,7.47
2022-09-16T19:40:21.076Z,9.35
2022-09-16T19:44:15.760Z,9.45
2022-09-16T19:48:08.056Z,8.85
2022-09-16T19:52:00.616Z,6.78
2022-09-16T19:56:10.992Z,7.15
2022-09-16T20:00:05.333Z,4.15
2022-09-16T20:03:58.025Z,4.85
2022-09-16T20:07:50.309Z,5.78
2022-09-16T20:11:45.595Z,8.38
2022-09-16T20:15:37.942Z,6.40
2022-09-16T20:19:30.474Z,6.57
2022-09-16T20:23:22.947Z,10.55
2022-09-16T20:27:15.298Z,7.28
2022-09-16T20:31:11.060Z,6.70
2022-09-16T20:35:03.693Z,5.03
2022-09-16T20:38:56.824Z,4.40
2022-09-16T20:42:49.397Z,4.18
2022-09-16T20:46:42.032Z,6.32
2022-09-16T20:50:38.826Z,4.80
2022-09-16T20:54:31.235Z,4.72
2022-09-16T20:58:23.630Z,6.32
